Terminal Aerodrome Forecast
Issued by NWS

Home | Current Version | Previous Version | Graphics & Text | Print | Product List | Glossary On
Versions: 1 2 3 4 5 6 7 8 9 10 11 12 13 14 15 16
320
FTUS43 KICT 051549 AAA
TAFHUT
TAF AMD
KHUT 051549Z 0516/0612 17012KT P6SM SKC
     FM051800 18018G25KT P6SM SCT250
     FM052200 18010KT P6SM BKN250
     FM060300 34012KT P6SM SCT250
     FM060500 36018G28KT P6SM BKN250=

USA.gov is the U.S. government's official web portal to all federal, state and local government web resources and services.